Time;durP1;ratioP1;P1;durP2;ratioP2;P2;SDS_P1;SDS_P2;PMS_P1;PMS_P2;Temp;Humidity;BMP_temperature;BMP_pressure;BME280_temperature;BME280_humidity;BME280_pressure;Samples;Min_cycle;Max_cycle;Signal;HPM_P1;HPM_P2
2022/03/23 00:00:32;;;;;;;40.60;19.67;;;;;;;;;;4996320;28;20050;-74
2022/03/23 00:02:57;;;;;;;39.33;19.38;;;;;;;;;;4988395;28;20029;-73
2022/03/23 00:05:25;;;;;;;37.83;19.98;;;;;;;;;;4996002;28;20093;-73
2022/03/23 00:07:50;;;;;;;35.72;18.73;;;;;;;;;;4998374;28;20026;-73
2022/03/23 00:10:16;;;;;;;38.58;19.30;;;;;;;;;;4991118;28;20054;-74
2022/03/23 00:12:44;;;;;;;35.05;19.08;;;;;;;;;;4992379;28;20061;-73
2022/03/23 00:15:10;;;;;;;36.22;19.15;;;;;;;;;;4999240;28;20153;-73
2022/03/23 00:17:36;;;;;;;38.63;19.17;;;;;;;;;;5006576;28;20037;-73
2022/03/23 00:20:01;;;;;;;31.95;17.95;;;;;;;;;;4991151;28;20027;-73
2022/03/23 00:22:27;;;;;;;37.17;19.42;;;;;;;;;;5001937;28;20042;-73
2022/03/23 00:24:56;;;;;;;37.83;19.25;;;;;;;;;;4991422;28;20117;-73
2022/03/23 00:27:21;;;;;;;37.33;19.85;;;;;;;;;;4998310;28;20034;-73
2022/03/23 00:29:48;;;;;;;42.92;18.98;;;;;;;;;;4996511;28;20361;-73
2022/03/23 00:32:14;;;;;;;35.20;19.23;;;;;;;;;;4990520;28;20030;-73
2022/03/23 00:34:40;;;;;;;35.75;17.98;;;;;;;;;;4990879;28;20042;-73
2022/03/23 00:37:06;;;;;;;37.50;19.08;;;;;;;;;;4999497;28;20035;-73
2022/03/23 00:39:31;;;;;;;40.25;19.15;;;;;;;;;;4991945;28;20061;-73
2022/03/23 00:41:57;;;;;;;38.63;20.55;;;;;;;;;;5011254;28;20037;-72
2022/03/23 00:44:23;;;;;;;41.17;20.27;;;;;;;;;;4988257;28;20030;-73
2022/03/23 00:46:49;;;;;;;39.17;19.25;;;;;;;;;;5010938;28;20333;-73
2022/03/23 00:49:14;;;;;;;37.35;20.00;;;;;;;;;;4998738;28;20330;-72
2022/03/23 00:51:40;;;;;;;39.75;19.85;;;;;;;;;;5002494;28;20053;-73
2022/03/23 00:54:05;;;;;;;39.72;21.27;;;;;;;;;;4994580;28;20030;-73
2022/03/23 00:56:31;;;;;;;38.67;21.15;;;;;;;;;;4996150;28;20077;-73
2022/03/23 00:58:56;;;;;;;37.63;20.50;;;;;;;;;;4987800;28;20430;-74
2022/03/23 01:01:22;;;;;;;37.65;20.27;;;;;;;;;;4996658;28;20034;-74
2022/03/23 01:03:48;;;;;;;38.47;20.85;;;;;;;;;;4987174;28;20348;-73
2022/03/23 01:06:14;;;;;;;39.08;19.77;;;;;;;;;;5003225;28;20034;-73
2022/03/23 01:08:40;;;;;;;39.03;20.80;;;;;;;;;;5016093;28;20041;-73
2022/03/23 01:11:05;;;;;;;42.40;21.55;;;;;;;;;;5022350;28;20025;-73
2022/03/23 01:13:31;;;;;;;38.47;20.35;;;;;;;;;;5022531;28;20030;-73
2022/03/23 01:15:57;;;;;;;38.53;19.77;;;;;;;;;;5022125;28;20053;-73
2022/03/23 01:18:22;;;;;;;40.08;19.33;;;;;;;;;;5022287;28;20136;-73
2022/03/23 01:20:48;;;;;;;37.75;20.63;;;;;;;;;;5020012;28;20025;-73
2022/03/23 01:23:13;;;;;;;38.58;20.30;;;;;;;;;;5013664;28;20340;-74
2022/03/23 01:25:38;;;;;;;41.85;20.13;;;;;;;;;;4987238;28;20299;-74
2022/03/23 01:28:05;;;;;;;39.50;20.10;;;;;;;;;;4999284;28;20033;-73
2022/03/23 01:30:30;;;;;;;37.20;20.15;;;;;;;;;;4991244;28;20033;-73
2022/03/23 01:32:56;;;;;;;42.65;20.63;;;;;;;;;;5002050;28;20022;-73
2022/03/23 01:35:21;;;;;;;39.38;21.25;;;;;;;;;;4993693;28;20026;-73
2022/03/23 01:37:46;;;;;;;39.30;20.33;;;;;;;;;;4993381;28;20065;-73
2022/03/23 01:40:13;;;;;;;41.35;21.17;;;;;;;;;;4996183;28;20056;-73
2022/03/23 01:42:39;;;;;;;39.45;21.25;;;;;;;;;;4988656;28;20199;-73
2022/03/23 01:45:06;;;;;;;42.90;20.92;;;;;;;;;;4993774;28;20026;-73
2022/03/23 01:47:32;;;;;;;39.33;21.05;;;;;;;;;;4995615;28;20038;-73
2022/03/23 01:49:57;;;;;;;41.83;22.88;;;;;;;;;;5001973;28;20028;-73
2022/03/23 01:52:29;;;;;;;39.03;21.38;;;;;;;;;;5001735;28;20034;-74
2022/03/23 01:54:56;;;;;;;40.30;19.60;;;;;;;;;;5002165;28;20018;-74
2022/03/23 01:57:22;;;;;;;36.78;20.20;;;;;;;;;;5002345;28;20088;-73
2022/03/23 01:59:48;;;;;;;38.20;19.45;;;;;;;;;;5002161;28;20026;-73
2022/03/23 02:02:13;;;;;;;39.50;19.95;;;;;;;;;;5002077;28;20345;-73
2022/03/23 02:04:39;;;;;;;37.50;19.08;;;;;;;;;;5001559;28;20398;-73
2022/03/23 02:07:05;;;;;;;36.15;19.02;;;;;;;;;;5001859;28;20053;-73
2022/03/23 02:09:31;;;;;;;41.50;19.48;;;;;;;;;;5001820;28;20183;-73
2022/03/23 02:11:58;;;;;;;36.42;19.25;;;;;;;;;;5001492;28;20094;-73
2022/03/23 02:14:23;;;;;;;36.10;19.83;;;;;;;;;;5000739;28;20299;-73
2022/03/23 02:16:51;;;;;;;36.55;18.38;;;;;;;;;;5001323;28;20057;-73
2022/03/23 02:19:18;;;;;;;34.90;19.23;;;;;;;;;;5001375;28;20088;-73
2022/03/23 02:21:48;;;;;;;37.65;18.38;;;;;;;;;;5001734;28;20037;-73
2022/03/23 02:24:14;;;;;;;41.53;19.35;;;;;;;;;;5001821;28;20022;-73
2022/03/23 02:26:40;;;;;;;37.95;18.85;;;;;;;;;;5001605;28;20026;-73
2022/03/23 02:29:06;;;;;;;34.97;18.20;;;;;;;;;;5001572;28;20033;-73
2022/03/23 02:31:32;;;;;;;35.47;17.85;;;;;;;;;;5001500;28;20026;-73
2022/03/23 02:33:58;;;;;;;32.90;17.13;;;;;;;;;;5001216;28;20033;-74
2022/03/23 02:36:24;;;;;;;34.42;17.58;;;;;;;;;;5000849;28;20027;-73
2022/03/23 02:38:49;;;;;;;38.03;17.90;;;;;;;;;;5001791;28;20038;-73
2022/03/23 02:41:15;;;;;;;33.33;17.85;;;;;;;;;;5001538;28;20026;-73
2022/03/23 02:43:40;;;;;;;36.17;17.60;;;;;;;;;;5001632;28;20037;-73
2022/03/23 02:46:11;;;;;;;36.25;18.13;;;;;;;;;;5001183;28;20165;-73
2022/03/23 02:48:37;;;;;;;36.85;17.65;;;;;;;;;;5001438;28;20041;-73
2022/03/23 02:51:02;;;;;;;34.90;18.20;;;;;;;;;;5001140;28;20093;-73
2022/03/23 03:02:21;;;;;;;34.40;16.75;;;;;;;;;;5001305;28;20433;-73
2022/03/23 03:04:47;;;;;;;34.25;16.88;;;;;;;;;;5001062;28;20034;-73
2022/03/23 03:07:13;;;;;;;35.50;17.63;;;;;;;;;;5001227;28;20313;-73
2022/03/23 03:09:38;;;;;;;33.03;17.55;;;;;;;;;;5001468;28;20061;-74
2022/03/23 03:12:04;;;;;;;34.50;17.13;;;;;;;;;;5001192;28;20057;-74
2022/03/23 03:14:31;;;;;;;37.15;17.95;;;;;;;;;;5001200;28;20031;-74
2022/03/23 03:16:57;;;;;;;32.17;16.38;;;;;;;;;;4987771;28;20311;-73
2022/03/23 03:19:22;;;;;;;32.13;17.30;;;;;;;;;;4981574;28;20031;-74
2022/03/23 03:21:47;;;;;;;36.35;17.10;;;;;;;;;;4990876;28;20030;-74
2022/03/23 03:24:13;;;;;;;34.22;16.98;;;;;;;;;;5001147;28;20042;-74
2022/03/23 03:26:38;;;;;;;34.95;17.75;;;;;;;;;;5001132;28;20413;-73
2022/03/23 03:29:04;;;;;;;35.30;17.77;;;;;;;;;;5003112;28;20053;-73
2022/03/23 03:31:31;;;;;;;33.65;16.50;;;;;;;;;;5003746;28;20033;-73
2022/03/23 03:33:56;;;;;;;32.45;15.93;;;;;;;;;;5004664;28;20085;-73
2022/03/23 03:36:22;;;;;;;38.05;17.20;;;;;;;;;;5004363;28;20034;-74
2022/03/23 03:38:47;;;;;;;33.88;17.15;;;;;;;;;;5004763;28;20029;-73
2022/03/23 03:41:13;;;;;;;34.80;16.55;;;;;;;;;;5003366;28;20210;-73
2022/03/23 03:43:39;;;;;;;32.15;16.23;;;;;;;;;;5004694;28;20076;-73
2022/03/23 03:46:10;;;;;;;33.83;16.75;;;;;;;;;;5004627;28;20041;-74
2022/03/23 03:48:36;;;;;;;32.28;16.65;;;;;;;;;;5004774;28;20026;-73
2022/03/23 03:51:01;;;;;;;35.30;16.65;;;;;;;;;;5004124;28;20041;-73
2022/03/23 03:53:27;;;;;;;31.73;16.38;;;;;;;;;;5004405;28;20026;-73
2022/03/23 03:55:52;;;;;;;30.92;16.17;;;;;;;;;;5004245;28;20053;-73
2022/03/23 03:58:18;;;;;;;30.67;15.93;;;;;;;;;;5004268;28;20029;-73
2022/03/23 04:00:44;;;;;;;35.33;16.42;;;;;;;;;;5004441;28;20030;-73
2022/03/23 04:03:12;;;;;;;34.30;15.65;;;;;;;;;;5004143;28;20038;-73
2022/03/23 04:05:37;;;;;;;32.22;16.00;;;;;;;;;;5003881;28;20065;-73
2022/03/23 04:08:03;;;;;;;32.63;16.08;;;;;;;;;;5004040;28;20026;-73
2022/03/23 04:10:29;;;;;;;31.70;16.00;;;;;;;;;;5003963;28;20373;-73
2022/03/23 04:12:56;;;;;;;33.65;16.02;;;;;;;;;;5003889;28;20049;-73
2022/03/23 04:15:21;;;;;;;31.48;16.27;;;;;;;;;;5003991;28;20044;-73
2022/03/23 04:17:48;;;;;;;31.15;16.02;;;;;;;;;;5003727;28;20318;-73
2022/03/23 04:20:13;;;;;;;32.10;15.73;;;;;;;;;;5003793;28;20094;-73
2022/03/23 04:22:39;;;;;;;32.47;16.35;;;;;;;;;;5003694;28;20026;-73
2022/03/23 04:25:10;;;;;;;32.28;16.38;;;;;;;;;;5003911;28;20326;-73
2022/03/23 04:27:45;;;;;;;33.90;16.92;;;;;;;;;;5003680;28;20061;-74
2022/03/23 04:30:12;;;;;;;33.95;16.80;;;;;;;;;;5003673;28;20266;-73
2022/03/23 04:32:38;;;;;;;29.85;15.50;;;;;;;;;;5003479;28;20042;-73
2022/03/23 04:35:05;;;;;;;35.83;15.80;;;;;;;;;;5003384;28;20089;-73
2022/03/23 04:37:31;;;;;;;31.48;16.45;;;;;;;;;;5003250;28;20050;-73
2022/03/23 04:39:56;;;;;;;29.85;16.27;;;;;;;;;;5002831;28;20030;-73
2022/03/23 04:42:21;;;;;;;30.10;16.17;;;;;;;;;;5002337;28;20034;-73
2022/03/23 04:44:47;;;;;;;30.25;15.88;;;;;;;;;;5003530;28;20094;-72
2022/03/23 04:47:12;;;;;;;30.70;15.90;;;;;;;;;;5003335;28;20034;-73
2022/03/23 04:49:38;;;;;;;31.48;16.08;;;;;;;;;;5003195;28;20022;-73
2022/03/23 04:52:03;;;;;;;37.55;16.10;;;;;;;;;;5003366;28;20026;-73
2022/03/23 04:54:29;;;;;;;32.00;15.38;;;;;;;;;;5003305;28;20045;-73
2022/03/23 04:56:54;;;;;;;29.95;16.23;;;;;;;;;;5003115;28;20025;-73
2022/03/23 04:59:21;;;;;;;31.88;15.45;;;;;;;;;;5003098;28;20033;-73
2022/03/23 05:01:49;;;;;;;31.80;15.82;;;;;;;;;;5003083;28;20044;-74
2022/03/23 05:04:15;;;;;;;29.83;15.38;;;;;;;;;;5002938;28;20034;-74
2022/03/23 05:06:40;;;;;;;28.98;15.02;;;;;;;;;;5003123;28;20226;-73
2022/03/23 05:09:05;;;;;;;28.33;15.13;;;;;;;;;;5002877;28;20221;-73
2022/03/23 05:11:31;;;;;;;29.90;15.45;;;;;;;;;;5002863;28;20081;-74
2022/03/23 05:13:56;;;;;;;35.42;16.08;;;;;;;;;;5002944;28;20034;-73
2022/03/23 05:16:21;;;;;;;29.98;14.98;;;;;;;;;;5003025;28;20030;-74
2022/03/23 05:18:48;;;;;;;27.90;14.10;;;;;;;;;;5003002;28;20389;-74
2022/03/23 05:21:13;;;;;;;31.90;16.17;;;;;;;;;;5002256;28;20038;-73
2022/03/23 05:23:39;;;;;;;30.50;15.88;;;;;;;;;;5002840;28;20261;-74
2022/03/23 05:26:05;;;;;;;29.73;14.95;;;;;;;;;;5002645;28;20407;-72
2022/03/23 05:28:30;;;;;;;28.50;14.30;;;;;;;;;;5002742;28;20080;-71
2022/03/23 05:30:55;;;;;;;37.65;14.50;;;;;;;;;;5002426;28;20222;-71
2022/03/23 05:33:21;;;;;;;28.05;14.82;;;;;;;;;;5002680;28;20132;-72
2022/03/23 05:35:46;;;;;;;31.80;14.85;;;;;;;;;;5002346;28;20022;-71
2022/03/23 05:38:11;;;;;;;27.20;13.82;;;;;;;;;;5002141;28;20422;-72
2022/03/23 05:40:37;;;;;;;30.33;14.82;;;;;;;;;;5002487;28;20088;-72
2022/03/23 05:43:02;;;;;;;33.60;16.85;;;;;;;;;;5002246;28;20030;-71
2022/03/23 05:45:28;;;;;;;34.03;17.00;;;;;;;;;;5002198;28;20409;-72
2022/03/23 05:47:53;;;;;;;41.45;18.48;;;;;;;;;;5002181;28;20022;-72
2022/03/23 05:50:19;;;;;;;46.92;19.38;;;;;;;;;;5002152;28;20037;-72
2022/03/23 05:52:45;;;;;;;43.30;21.08;;;;;;;;;;5002027;28;20026;-72
2022/03/23 05:55:10;;;;;;;44.47;20.13;;;;;;;;;;5002148;28;20024;-72
2022/03/23 05:57:37;;;;;;;39.78;18.48;;;;;;;;;;5001941;28;20106;-73
2022/03/23 06:00:05;;;;;;;40.20;18.55;;;;;;;;;;5002172;28;20053;-72
2022/03/23 06:02:30;;;;;;;37.97;18.92;;;;;;;;;;5000832;28;20032;-72
2022/03/23 06:04:56;;;;;;;36.40;17.40;;;;;;;;;;5000656;28;20054;-73
2022/03/23 06:07:21;;;;;;;36.15;17.38;;;;;;;;;;5030777;28;20103;-72
2022/03/23 06:09:46;;;;;;;33.50;17.00;;;;;;;;;;5001943;28;20030;-72
2022/03/23 06:12:12;;;;;;;39.13;17.38;;;;;;;;;;4990048;28;20034;-72
2022/03/23 06:14:43;;;;;;;38.83;18.45;;;;;;;;;;4982302;28;20026;-73
2022/03/23 06:17:09;;;;;;;42.20;17.38;;;;;;;;;;4982316;28;20061;-72
2022/03/23 06:19:35;;;;;;;40.65;16.88;;;;;;;;;;4982287;28;20046;-72
2022/03/23 06:22:00;;;;;;;37.42;17.27;;;;;;;;;;5012367;28;20035;-72
2022/03/23 06:24:26;;;;;;;34.88;16.58;;;;;;;;;;5001743;28;20027;-72
2022/03/23 06:26:52;;;;;;;40.00;17.95;;;;;;;;;;5000436;28;20060;-72
2022/03/23 06:29:17;;;;;;;45.17;17.35;;;;;;;;;;5001468;28;20030;-71
2022/03/23 06:31:42;;;;;;;38.90;17.30;;;;;;;;;;5001424;28;20322;-72
2022/03/23 06:34:08;;;;;;;36.75;16.60;;;;;;;;;;4998093;28;20083;-72
2022/03/23 06:36:35;;;;;;;40.28;17.30;;;;;;;;;;5000813;28;20076;-72
2022/03/23 06:39:00;;;;;;;34.03;16.92;;;;;;;;;;5001625;28;20033;-72
2022/03/23 06:41:26;;;;;;;37.65;18.60;;;;;;;;;;5001459;28;20225;-72
2022/03/23 06:43:52;;;;;;;38.75;18.15;;;;;;;;;;5001592;28;20026;-72
2022/03/23 06:46:17;;;;;;;40.42;18.02;;;;;;;;;;5001410;28;20034;-72
2022/03/23 06:48:42;;;;;;;34.05;16.85;;;;;;;;;;5024970;28;20032;-72
2022/03/23 06:51:08;;;;;;;40.42;17.67;;;;;;;;;;5000741;28;20030;-71
2022/03/23 06:53:33;;;;;;;32.50;17.63;;;;;;;;;;4994439;28;20093;-72
2022/03/23 06:55:58;;;;;;;36.10;17.27;;;;;;;;;;5000805;28;20022;-73
2022/03/23 06:58:24;;;;;;;37.30;17.70;;;;;;;;;;5001394;28;20250;-72
2022/03/23 07:00:49;;;;;;;39.90;18.80;;;;;;;;;;5001140;28;20294;-73
2022/03/23 07:03:14;;;;;;;40.35;17.80;;;;;;;;;;5001519;28;20061;-73
2022/03/23 07:05:40;;;;;;;36.10;16.77;;;;;;;;;;5000118;28;20057;-73
2022/03/23 07:10:50;;;;;;;33.38;14.75;;;;;;;;;;4998671;28;20093;-73
2022/03/23 07:13:15;;;;;;;30.90;12.23;;;;;;;;;;4988846;28;20086;-73
2022/03/23 07:15:42;;;;;;;33.67;13.57;;;;;;;;;;5003105;28;20031;-73
2022/03/23 07:18:09;;;;;;;37.25;13.40;;;;;;;;;;5004955;28;20022;-73
2022/03/23 07:20:35;;;;;;;32.13;14.20;;;;;;;;;;5004475;28;20069;-73
2022/03/23 07:23:00;;;;;;;31.92;13.98;;;;;;;;;;4994469;28;20034;-73
2022/03/23 07:25:26;;;;;;;25.98;12.98;;;;;;;;;;4990301;28;20026;-73
2022/03/23 07:27:51;;;;;;;29.33;12.27;;;;;;;;;;5004454;28;20023;-72
2022/03/23 07:30:17;;;;;;;28.27;12.13;;;;;;;;;;5004581;28;20242;-72
2022/03/23 07:32:42;;;;;;;29.13;11.80;;;;;;;;;;5004564;28;20027;-72
2022/03/23 07:35:08;;;;;;;22.10;10.65;;;;;;;;;;4986047;28;20102;-72
2022/03/23 07:37:34;;;;;;;33.30;13.98;;;;;;;;;;5004129;28;20414;-72
2022/03/23 07:40:03;;;;;;;38.83;14.13;;;;;;;;;;5018052;28;20247;-72
2022/03/23 07:42:28;;;;;;;22.75;11.45;;;;;;;;;;5003171;28;20018;-72
2022/03/23 07:44:54;;;;;;;22.08;9.70;;;;;;;;;;4993778;28;20033;-71
2022/03/23 07:47:19;;;;;;;18.42;10.02;;;;;;;;;;5002080;28;20022;-72
2022/03/23 07:49:45;;;;;;;26.13;10.23;;;;;;;;;;5003728;28;20018;-71
2022/03/23 07:52:10;;;;;;;21.38;10.13;;;;;;;;;;4998640;28;20027;-72
2022/03/23 07:54:36;;;;;;;19.98;10.85;;;;;;;;;;4984874;28;20076;-72
2022/03/23 07:57:02;;;;;;;20.77;9.82;;;;;;;;;;4999481;28;20376;-73
2022/03/23 07:59:28;;;;;;;24.90;10.27;;;;;;;;;;5010673;28;20141;-73
2022/03/23 08:01:54;;;;;;;19.67;10.20;;;;;;;;;;4994486;28;20030;-74
2022/03/23 08:04:19;;;;;;;17.58;9.68;;;;;;;;;;4984140;28;20026;-73
2022/03/23 08:06:44;;;;;;;19.90;9.98;;;;;;;;;;4984361;28;20029;-73
2022/03/23 08:09:10;;;;;;;17.20;9.52;;;;;;;;;;4996848;28;20018;-73
2022/03/23 08:11:36;;;;;;;17.40;10.07;;;;;;;;;;5002426;28;20472;-74
2022/03/23 08:14:01;;;;;;;19.42;9.30;;;;;;;;;;5000578;28;20027;-71
2022/03/23 08:16:27;;;;;;;17.05;9.27;;;;;;;;;;5002404;28;20026;-74
2022/03/23 08:18:52;;;;;;;21.00;10.07;;;;;;;;;;5001030;28;20034;-72
2022/03/23 08:21:19;;;;;;;17.98;9.32;;;;;;;;;;4989962;28;20031;-73
2022/03/23 08:23:45;;;;;;;19.25;10.20;;;;;;;;;;5022481;28;20034;-73
2022/03/23 08:26:13;;;;;;;16.15;9.25;;;;;;;;;;5023057;28;20038;-74
2022/03/23 08:28:40;;;;;;;18.50;9.77;;;;;;;;;;5000350;28;20153;-72
2022/03/23 08:31:05;;;;;;;17.50;9.68;;;;;;;;;;4983737;28;20062;-74
2022/03/23 08:33:34;;;;;;;18.85;8.95;;;;;;;;;;4984031;28;20030;-76
2022/03/23 08:36:01;;;;;;;18.98;9.60;;;;;;;;;;4987824;28;20306;-74
2022/03/23 08:38:27;;;;;;;15.70;8.52;;;;;;;;;;5000025;28;20069;-73
2022/03/23 08:40:53;;;;;;;14.55;9.18;;;;;;;;;;5002664;28;20025;-74
2022/03/23 08:43:18;;;;;;;17.20;9.43;;;;;;;;;;5000656;28;20049;-75
2022/03/23 08:45:44;;;;;;;15.52;7.97;;;;;;;;;;5002708;28;20025;-77
2022/03/23 08:48:09;;;;;;;15.65;8.27;;;;;;;;;;5003207;28;20314;-77
2022/03/23 08:50:36;;;;;;;16.52;7.97;;;;;;;;;;4995331;28;20347;-76
2022/03/23 08:53:02;;;;;;;15.88;7.88;;;;;;;;;;4983619;28;20030;-73
2022/03/23 08:55:28;;;;;;;11.15;6.68;;;;;;;;;;4983721;28;20319;-78
2022/03/23 08:57:54;;;;;;;15.75;7.43;;;;;;;;;;4983574;28;20090;-73
2022/03/23 09:00:20;;;;;;;14.25;7.18;;;;;;;;;;4989270;28;20102;-73
2022/03/23 09:02:45;;;;;;;14.20;7.18;;;;;;;;;;4983307;28;20022;-73
2022/03/23 09:05:14;;;;;;;12.30;7.63;;;;;;;;;;4987200;28;20475;-73
2022/03/23 09:07:41;;;;;;;17.88;7.80;;;;;;;;;;4983343;28;20045;-73
2022/03/23 09:10:07;;;;;;;15.65;7.75;;;;;;;;;;4984765;28;20015;-73
2022/03/23 09:12:32;;;;;;;14.07;7.60;;;;;;;;;;4997188;28;20044;-72
2022/03/23 09:14:58;;;;;;;16.35;7.50;;;;;;;;;;5002848;28;20097;-73
2022/03/23 09:17:23;;;;;;;16.33;7.90;;;;;;;;;;4999084;28;20027;-74
2022/03/23 09:19:49;;;;;;;11.98;6.90;;;;;;;;;;4982919;28;20034;-74
2022/03/23 09:22:14;;;;;;;10.73;7.00;;;;;;;;;;4982974;28;20062;-73
2022/03/23 09:24:40;;;;;;;14.82;7.90;;;;;;;;;;4985930;28;20333;-73
2022/03/23 09:27:06;;;;;;;13.68;7.55;;;;;;;;;;5002043;28;20322;-73
2022/03/23 09:29:31;;;;;;;16.08;7.72;;;;;;;;;;5001939;28;20030;-73
2022/03/23 09:31:57;;;;;;;14.25;7.45;;;;;;;;;;4992543;28;20034;-73
2022/03/23 09:34:23;;;;;;;14.45;8.07;;;;;;;;;;5002103;28;20026;-73
2022/03/23 09:39:34;;;;;;;14.52;7.70;;;;;;;;;;4991052;28;20057;-73
2022/03/23 09:42:00;;;;;;;15.80;7.95;;;;;;;;;;5020535;28;20029;-73
2022/03/23 09:44:30;;;;;;;17.98;7.32;;;;;;;;;;5021532;28;20030;-75
2022/03/23 09:46:58;;;;;;;13.73;7.57;;;;;;;;;;4993509;28;20057;-75
2022/03/23 09:49:25;;;;;;;17.13;7.10;;;;;;;;;;5001477;28;20055;-76
2022/03/23 09:51:53;;;;;;;14.55;7.20;;;;;;;;;;5001442;28;20400;-77
2022/03/23 09:54:22;;;;;;;16.98;7.60;;;;;;;;;;4998104;28;20037;-76
2022/03/23 09:56:48;;;;;;;12.27;6.55;;;;;;;;;;5014312;28;20304;-75
2022/03/23 09:59:14;;;;;;;14.85;6.95;;;;;;;;;;4983791;28;20031;-73
2022/03/23 10:01:51;;;;;;;15.90;6.90;;;;;;;;;;5001240;28;20022;-75
2022/03/23 10:04:19;;;;;;;13.05;6.75;;;;;;;;;;5001129;28;20026;-77
2022/03/23 10:07:05;;;;;;;12.80;6.35;;;;;;;;;;5001286;28;20077;-75
2022/03/23 10:09:55;;;;;;;11.80;6.60;;;;;;;;;;4980757;28;20113;-77
2022/03/23 10:12:58;;;;;;;9.63;6.25;;;;;;;;;;5000354;28;20053;-75
2022/03/23 10:15:45;;;;;;;12.25;6.75;;;;;;;;;;5001590;28;20037;-76
2022/03/23 10:18:35;;;;;;;13.88;7.25;;;;;;;;;;5001167;28;20093;-76
2022/03/23 10:21:00;;;;;;;12.30;7.10;;;;;;;;;;5001385;28;20058;-76
2022/03/23 10:23:26;;;;;;;13.27;7.00;;;;;;;;;;5001563;28;20022;-77
2022/03/23 10:25:51;;;;;;;14.07;6.90;;;;;;;;;;5001466;28;20025;-75
2022/03/23 10:28:18;;;;;;;12.68;6.82;;;;;;;;;;5001080;28;20057;-77
2022/03/23 10:30:44;;;;;;;12.95;7.10;;;;;;;;;;5001704;28;20041;-72
2022/03/23 10:33:20;;;;;;;18.35;6.90;;;;;;;;;;5001419;28;20036;-72
2022/03/23 10:35:46;;;;;;;14.30;6.93;;;;;;;;;;5001310;28;20049;-72
2022/03/23 10:38:20;;;;;;;11.55;7.47;;;;;;;;;;4999355;28;20034;-73
2022/03/23 10:40:47;;;;;;;13.73;7.18;;;;;;;;;;5002317;28;20054;-73
2022/03/23 10:43:16;;;;;;;12.85;7.35;;;;;;;;;;5002849;28;20108;-74
2022/03/23 10:45:41;;;;;;;13.30;7.43;;;;;;;;;;5000837;28;20093;-78
2022/03/23 10:48:13;;;;;;;16.50;7.63;;;;;;;;;;5000884;28;20293;-75
2022/03/23 10:50:53;;;;;;;12.10;7.50;;;;;;;;;;4981174;28;20019;-74
2022/03/23 10:53:39;;;;;;;13.10;7.43;;;;;;;;;;4981669;28;20274;-73
2022/03/23 10:56:06;;;;;;;13.20;7.45;;;;;;;;;;4982190;28;20027;-76
2022/03/23 10:58:32;;;;;;;14.18;7.38;;;;;;;;;;5000775;28;20026;-72
2022/03/23 11:01:00;;;;;;;14.48;7.78;;;;;;;;;;5000281;28;20030;-73
2022/03/23 11:03:36;;;;;;;12.02;7.55;;;;;;;;;;4999572;28;20023;-73
2022/03/23 11:06:01;;;;;;;16.67;8.00;;;;;;;;;;5000932;28;20258;-73
2022/03/23 11:08:27;;;;;;;14.15;8.18;;;;;;;;;;5000263;28;20037;-73
2022/03/23 11:16:46;;;;;;;19.80;8.85;;;;;;;;;;4985305;28;20034;-76
2022/03/23 11:19:12;;;;;;;14.40;8.65;;;;;;;;;;5000698;28;20081;-77
2022/03/23 11:21:57;;;;;;;18.75;8.43;;;;;;;;;;5000667;28;20022;-78
2022/03/23 11:24:23;;;;;;;14.15;8.38;;;;;;;;;;4998858;28;20410;-74
2022/03/23 11:26:50;;;;;;;13.98;8.35;;;;;;;;;;4999505;28;20024;-74
2022/03/23 11:29:17;;;;;;;17.67;8.60;;;;;;;;;;4996875;28;20127;-73
2022/03/23 11:31:45;;;;;;;14.93;8.50;;;;;;;;;;4980941;28;20035;-76
2022/03/23 11:34:13;;;;;;;14.32;8.30;;;;;;;;;;4991525;28;20072;-73
2022/03/23 11:36:39;;;;;;;15.50;7.95;;;;;;;;;;4999886;28;20058;-74
2022/03/23 11:39:05;;;;;;;14.10;8.50;;;;;;;;;;5000065;28;20333;-75
2022/03/23 11:41:32;;;;;;;14.63;8.30;;;;;;;;;;5000638;28;20089;-76
2022/03/23 11:43:58;;;;;;;16.65;7.82;;;;;;;;;;5000484;28;20034;-74
2022/03/23 11:46:24;;;;;;;15.95;8.05;;;;;;;;;;5000418;28;20034;-78
2022/03/23 11:48:59;;;;;;;15.60;8.40;;;;;;;;;;5000385;28;20214;-73
2022/03/23 11:51:30;;;;;;;13.65;8.10;;;;;;;;;;5004026;28;20031;-75
2022/03/23 11:53:56;;;;;;;14.85;7.72;;;;;;;;;;5004504;28;20104;-73
2022/03/23 11:56:56;;;;;;;19.30;8.10;;;;;;;;;;5008442;28;20022;-77
2022/03/23 11:59:29;;;;;;;16.40;8.38;;;;;;;;;;5004465;28;20038;-75
2022/03/23 12:01:56;;;;;;;12.15;7.82;;;;;;;;;;5000592;28;20347;-74
2022/03/23 12:04:26;;;;;;;15.77;7.82;;;;;;;;;;4984224;28;20031;-78
2022/03/23 12:07:09;;;;;;;15.23;8.00;;;;;;;;;;4984873;28;20034;-75
2022/03/23 12:09:41;;;;;;;11.57;6.97;;;;;;;;;;5008366;28;20109;-74
2022/03/23 12:12:26;;;;;;;14.30;7.60;;;;;;;;;;5003646;28;20041;-74
2022/03/23 12:15:11;;;;;;;10.50;6.95;;;;;;;;;;5010271;28;20092;-74
2022/03/23 12:17:37;;;;;;;13.25;7.15;;;;;;;;;;5006308;28;20018;-74
2022/03/23 12:20:08;;;;;;;12.27;6.50;;;;;;;;;;5002468;28;20263;-76
2022/03/23 12:22:33;;;;;;;14.98;7.45;;;;;;;;;;5003527;28;20057;-74
2022/03/23 12:25:14;;;;;;;12.38;7.15;;;;;;;;;;5003747;28;20242;-76
2022/03/23 12:27:55;;;;;;;13.15;6.60;;;;;;;;;;5003770;28;20026;-73
2022/03/23 12:30:37;;;;;;;11.73;7.05;;;;;;;;;;5003717;28;20234;-73
2022/03/23 12:33:10;;;;;;;12.02;6.70;;;;;;;;;;5003215;28;20076;-74
2022/03/23 12:35:36;;;;;;;13.02;6.93;;;;;;;;;;5002780;28;20022;-74
2022/03/23 12:38:04;;;;;;;18.40;7.90;;;;;;;;;;5014863;28;20053;-74
2022/03/23 12:40:41;;;;;;;12.48;7.32;;;;;;;;;;5013792;28;20446;-74
2022/03/23 12:43:07;;;;;;;12.30;7.10;;;;;;;;;;4983319;28;20026;-74
2022/03/23 12:45:36;;;;;;;11.20;7.38;;;;;;;;;;4982558;28;20061;-74
2022/03/23 12:48:07;;;;;;;13.70;7.15;;;;;;;;;;4982993;28;20015;-74
2022/03/23 12:59:17;;;;;;;11.13;7.10;;;;;;;;;;4982449;28;20030;-73
2022/03/23 13:01:43;;;;;;;14.15;7.20;;;;;;;;;;4981502;28;20015;-73
2022/03/23 13:04:08;;;;;;;13.20;6.43;;;;;;;;;;4981350;28;20263;-74
2022/03/23 13:06:37;;;;;;;14.23;7.72;;;;;;;;;;4982130;28;20019;-74
2022/03/23 13:09:08;;;;;;;18.70;8.02;;;;;;;;;;4985882;28;20083;-76
2022/03/23 13:11:35;;;;;;;14.15;7.68;;;;;;;;;;4984578;28;20049;-78
2022/03/23 13:14:02;;;;;;;12.30;7.78;;;;;;;;;;4983416;28;20105;-78
2022/03/23 13:16:35;;;;;;;15.90;8.00;;;;;;;;;;4987500;28;20554;-77
2022/03/23 13:19:02;;;;;;;14.02;7.65;;;;;;;;;;4988131;28;20031;-75
2022/03/23 13:21:31;;;;;;;14.35;8.10;;;;;;;;;;4991613;28;20033;-78
2022/03/23 13:24:02;;;;;;;17.38;9.13;;;;;;;;;;5000929;28;20026;-78
2022/03/23 13:26:30;;;;;;;16.25;8.43;;;;;;;;;;4992297;28;20085;-78
2022/03/23 13:29:05;;;;;;;14.48;8.68;;;;;;;;;;4986982;28;20034;-78
2022/03/23 13:31:32;;;;;;;;;;;;;;;;;;5004694;28;20486;-74
2022/03/23 13:34:06;;;;;;;14.38;7.82;;;;;;;;;;4999508;28;19945;-77
2022/03/23 13:36:34;;;;;;;13.13;8.33;;;;;;;;;;5001178;28;20089;-76
2022/03/23 13:39:04;;;;;;;13.95;8.52;;;;;;;;;;5002317;28;20037;-77
2022/03/23 13:44:17;;;;;;;18.13;9.43;;;;;;;;;;5006019;28;20061;-73
2022/03/23 13:46:45;;;;;;;16.75;9.10;;;;;;;;;;4999344;28;20314;-73
2022/03/23 13:49:14;;;;;;;15.65;8.98;;;;;;;;;;5000000;28;20210;-72
2022/03/23 13:51:45;;;;;;;19.75;9.88;;;;;;;;;;4999460;28;20089;-73
2022/03/23 13:54:13;;;;;;;16.27;9.98;;;;;;;;;;5001256;28;20037;-73
2022/03/23 13:56:44;;;;;;;15.25;9.43;;;;;;;;;;4999075;28;20548;-73
2022/03/23 13:59:11;;;;;;;16.98;9.43;;;;;;;;;;4999388;28;20038;-72
2022/03/23 14:01:41;;;;;;;18.73;9.73;;;;;;;;;;4993597;28;20049;-71
2022/03/23 14:04:08;;;;;;;16.70;10.35;;;;;;;;;;4988045;28;20033;-72
2022/03/23 14:06:45;;;;;;;17.35;10.20;;;;;;;;;;4981930;28;20030;-72
2022/03/23 14:09:13;;;;;;;17.63;9.90;;;;;;;;;;4989690;28;20058;-73
2022/03/23 14:14:28;;;;;;;15.50;9.35;;;;;;;;;;4993244;28;20022;-73
2022/03/23 14:17:24;;;;;;;13.02;8.98;;;;;;;;;;4990748;28;20104;-73
2022/03/23 14:19:57;;;;;;;18.10;9.95;;;;;;;;;;4990736;28;20018;-73
2022/03/23 14:22:27;;;;;;;17.35;9.27;;;;;;;;;;4994151;28;20024;-72
2022/03/23 14:24:57;;;;;;;14.15;8.63;;;;;;;;;;5001527;28;20090;-74
2022/03/23 14:27:26;;;;;;;16.98;9.10;;;;;;;;;;5001356;28;20037;-74
2022/03/23 14:29:58;;;;;;;15.90;8.75;;;;;;;;;;4984523;28;20305;-73
2022/03/23 14:32:43;;;;;;;19.88;8.45;;;;;;;;;;4981802;28;20043;-73
2022/03/23 14:35:10;;;;;;;;;;;;;;;;;;4988814;28;20033;-73
2022/03/23 14:37:37;;;;;;;17.42;8.70;;;;;;;;;;4995519;28;20094;-74
2022/03/23 14:40:27;;;;;;;16.30;8.45;;;;;;;;;;4984376;28;20053;-73
2022/03/23 14:42:55;;;;;;;15.50;8.55;;;;;;;;;;4999491;28;20050;-73
2022/03/23 14:45:43;;;;;;;17.75;9.10;;;;;;;;;;4987462;28;20027;-73
2022/03/23 14:48:16;;;;;;;14.27;8.70;;;;;;;;;;4988153;28;20019;-75
2022/03/23 14:50:44;;;;;;;14.45;8.55;;;;;;;;;;4988192;28;20034;-73
2022/03/23 14:53:09;;;;;;;16.13;8.88;;;;;;;;;;4983328;28;20026;-74
2022/03/23 14:55:39;;;;;;;15.90;9.30;;;;;;;;;;4985033;28;20141;-72
2022/03/23 14:58:05;;;;;;;19.48;9.32;;;;;;;;;;4988571;28;20105;-73
2022/03/23 15:00:31;;;;;;;19.38;9.70;;;;;;;;;;4989973;28;20192;-73